Main page
METAR-TAF:

METAR-TAF

Airports :

Vigo–Peinador Airport

Vigo, Spain

latitude: 42-13N, longitude: 008-38W, elevation: 264 m

Current weather observation

The report was made 28 minutes ago, at 11:30 UTC
Wind 6 kt from the North, varying between North/Northwest and East/Northeast
Temperature 24°C
Humidity 65%
Pressure 1020 hPa
Visibility 10 km or more
no clouds below 1500 m and no cumulonimbus

METAR: LEVX 231130Z 01006KT 330V070 CAVOK 24/17 Q1020 NOSIG

Time: 13:58 (11:58 UTC)

Forecast

The report was made 58 minutes ago, at 11:00 UTC
Forecast valid from 23 at 12 UTC to 24 at 12 UTC
Wind 8 kt from the North
Visibility 10 km or more
Few clouds at a height of 3500 ft

TAF: LEVX 231100Z 2312/2412 01008KT 9999 FEW035 TX28/2314Z TN15/2406Z

Weather observations and forecasts of more than 4000 airports (METAR and TAF reports).

The available stations are represented by yellow and red dots on the map.

Hover mouse over dot to see the name of the station.

Then click to see weather observations and forecasts.

To change the map : click on the green buttons with a black cross to zoom in, on the green button with a dash to zoom out, or on the green arrows for adjacent maps.


METAR-TAF: